Latest Coastal Weather Observations for Gove Airport

IDD60701

Issued at 5:21 pm CST Wednesday 26 April 2017 (issued every 10 minutes, with the page automatically refreshed every 10 minutes)

About coastal observations | Map of coastal stations | Coastal observations for NT | Marine services | Other Formats
Station Details ID: 014508 Name: GOVE AIRPORT Lat: -12.27 Lon: 136.82 Height: 51.6 m
Data from the previous 72 hours. | See also: Recent months at Gove Airport
Date/Time
CST
Temp
°C
Wind Pressure Rain since
9am
mm
Weather Cloud Vis
km
Sea
Height
m
Swell
Dir  Spd
kts
Gust
kts
hPa Trend Height
m
Period
s
Dir
26/05:06pm 23.9 S 13 20 1010.3 - 9.4 - Partly cloudy 2 - - - -
26/05:00pm 23.8 S 12 22 1010.4 - 9.0 - Partly cloudy 3 - - - -
26/04:52pm 23.9 S 10 18 1010.3 - 8.8 - Partly cloudy 2 - - - -
26/04:30pm 25.1 S 9 13 1010.1 - 7.2 - Partly cloudy 10 - - - -
26/04:10pm 25.5 SSE 9 15 1009.8 - 7.0 Showers Partly cloudy 7 - - - -
26/04:00pm 25.8 S 7 9 1009.7 - 7.0 Showers Partly cloudy 10 - - - -
26/03:45pm 25.9 SSW 5 7 1009.7 - 7.0 Showers Partly cloudy 10 - - - -
26/03:30pm 26.3 SSE 5 6 1009.4 - 7.0 - Partly cloudy 10 - - - -
26/03:22pm 26.3 ESE 5 7 1009.4 - 6.8 Showers Partly cloudy 10 - - - -
26/03:00pm 26.1 ESE 8 14 1009.4 R 6.4 Rain Cloudy 0.5 - - - -
26/02:49pm 27.5 ESE 6 8 1009.4 - 0.2 Showers Mostly cloudy 2 - - - -
26/02:30pm 27.7 E 9 15 1009.6 - 0.2 - Mostly clear 10 - - - -
26/02:00pm 28.7 E 10 15 1009.5 - 0.2 - Partly cloudy 10 - - - -
26/01:30pm 29.4 E 12 17 1009.7 - 0.2 - Mostly clear 10 - - - -
26/01:00pm 28.4 ENE 12 18 1009.9 - 0.2 Showers Partly cloudy 10 - - - -
26/12:30pm 29.0 ENE 12 17 1010.4 - 0.2 - Mostly clear 2 - - - -
26/12:00pm 29.4 ENE 11 16 1010.7 F 0.2 Recent precip. Mostly clear 10 - - - -
26/11:30am 29.0 ENE 9 12 1010.9 - 0.2 - Mostly clear 10 - - - -
26/11:00am 28.0 ENE 10 14 1011.4 - 0.0 - Mostly clear 10 - - - -
26/10:30am 28.6 ENE 10 14 1011.7 - 0.0 - Partly cloudy 10 - - - -
26/10:00am 28.0 ENE 11 15 1012.1 - 0.0 - Partly cloudy 10 - - - -
26/09:30am 27.9 ENE 10 15 1011.8 - 0.0 - Mostly clear 10 - - - -
26/09:00am 27.4 ENE 11 16 1011.7 R 18.2 - Cloudy 10 - - - -
26/08:30am 27.3 E 8 13 1011.5 - 18.2 - Partly cloudy 10 - - - -
26/08:00am 26.4 E 7 10 1011.2 - 18.2 - Partly cloudy 10 - - - -
26/07:30am 26.1 ENE 10 15 1011.1 - 18.2 - Partly cloudy 10 - - - -
26/07:00am 26.4 E 7 9 1010.6 - 18.2 - Partly cloudy 10 - - - -
26/06:30am 26.3 ENE 7 10 1010.2 - 18.2 - Partly cloudy 10 - - - -
26/06:00am 26.3 E 7 9 1009.8 S 18.2 - Cloudy 10 - - - -
26/05:30am 25.9 ESE 8 11 1009.7 - 18.2 - Partly cloudy 10 - - - -
26/05:00am 25.9 E 7 9 1009.7 - 18.2 - Partly cloudy 10 - - - -
26/04:30am 25.2 E 5 6 1009.4 - 18.2 - Partly cloudy 10 - - - -
26/04:00am 24.7 SE 1 4 1009.3 - 18.2 - Partly cloudy 10 - - - -
26/03:30am 24.5 SE 1 3 1009.3 - 18.2 - Partly cloudy 10 - - - -
26/03:00am 24.5 ESE 2 3 1009.4 R 18.2 Recent precip. Cloudy 10 - - - -
26/02:46am 24.5 E 4 5 1009.6 - 18.2 - Partly cloudy 10 - - - -
26/02:37am 24.6 E 5 8 1009.6 - 18.2 - Partly cloudy 8 - - - -
26/02:30am 24.5 E 7 10 1009.5 - 18.2 - Partly cloudy 1 - - - -
26/02:18am 25.0 E 6 9 1009.8 - 17.2 - Partly cloudy 2 - - - -
26/02:15am 25.0 E 5 7 1009.8 - 16.8 - Partly cloudy 4 - - - -
26/02:01am 24.9 ESE 6 8 1009.8 - 16.8 - Partly cloudy 5 - - - -
26/02:00am 24.9 ESE 6 8 1009.8 - 16.8 - Partly cloudy 5 - - - -
26/01:34am 25.2 SSE 4 9 1010.1 - 16.2 - Partly cloudy 5 - - - -
26/01:30am 25.3 S 3 5 1010.1 - 16.2 - Partly cloudy 10 - - - -
26/01:00am 25.3 SSE 3 3 1010.2 - 16.2 - Partly cloudy 10 - - - -
26/12:30am 25.3 SE 2 3 1010.6 - 16.2 - Partly cloudy 10 - - - -
26/12:00am 25.3 SSE 3 4 1010.8 F 16.2 - Cloudy 10 - - - -
 
Date/Time
CST
Temp
°C
Wind Pressure Rain since
9am
mm
Weather Cloud Vis
km
Sea
Height
m
Swell
Dir  Spd
kts
Gust
kts
hPa Trend Height
m
Period
s
Dir
25/11:30pm 25.3 SE 4 5 1010.5 - 16.2 - Partly cloudy 10 - - - -
25/11:00pm 25.7 ESE 5 7 1010.5 - 16.2 - Partly cloudy 10 - - - -
25/10:30pm 25.4 ESE 6 8 1010.6 - 16.2 - Partly cloudy 10 - - - -
25/10:00pm 25.5 ESE 6 8 1010.8 - 16.2 - - 10 - - - -
25/09:30pm 25.7 ESE 6 8 1010.9 - 16.2 - - 10 - - - -
25/09:00pm 25.3 ESE 6 7 1011.1 F 16.2 - Partly cloudy 10 - - - -
25/08:30pm 25.2 ESE 5 7 1010.7 - 16.2 - Partly cloudy 10 - - - -
25/08:00pm 25.1 ESE 5 6 1010.7 - 16.2 - Partly cloudy 10 - - - -
25/07:30pm 25.5 E 7 9 1010.5 - 16.2 - Partly cloudy 10 - - - -
25/07:00pm 25.3 E 5 8 1010.2 - 16.2 - Partly cloudy 10 - - - -
25/06:30pm 25.3 ESE 5 7 1010.1 - 16.2 - Partly cloudy 10 - - - -
25/06:06pm 25.0 E 5 6 1009.8 - 16.2 - Partly cloudy 10 - - - -
25/06:04pm 25.1 ESE 5 6 1009.8 - 16.2 - Partly cloudy 10 - - - -
25/06:00pm 25.1 ESE 5 6 1009.8 F 16.2 Recent precip. Cloudy 10 - - - -
25/05:30pm 24.8 SSW 3 5 1009.6 - 15.8 - Partly cloudy 4 - - - -
25/05:29pm 24.9 SSW 3 5 1009.6 - 15.8 - Cloudy 5 - - - -
25/05:14pm 24.9 WSW 5 7 1009.5 - 15.8 - Partly cloudy 10 - - - -
25/05:08pm 25.1 WSW 4 5 1009.5 - 15.8 - Partly cloudy 10 - - - -
25/05:00pm 25.1 WSW 4 5 1009.3 - 15.8 - Partly cloudy 7 - - - -
25/04:55pm 25.1 SW 3 5 1009.3 - 15.8 - Partly cloudy 7 - - - -
25/04:30pm 25.3 NE 7 11 1009.7 - 15.0 - Partly cloudy 2 - - - -
25/04:25pm 25.4 NNE 6 9 1009.6 - 13.8 - Partly cloudy 6 - - - -
25/04:07pm 25.2 NE 7 10 1009.4 - 13.6 - Partly cloudy 7 - - - -
25/04:00pm 25.0 NE 7 10 1009.3 - 13.6 - Partly cloudy 7 - - - -
25/03:52pm 24.9 ENE 8 11 1009.3 - 13.6 - Partly cloudy 3 - - - -
25/03:32pm 25.8 E 6 21 1009.6 - 10.0 - Partly cloudy 5 - - - -
25/03:30pm 26.7 ESE 4 8 1009.3 - 9.4 - Partly cloudy 10 - - - -
25/03:26pm 26.7 ESE 4 6 1009.1 - 9.4 - Partly cloudy 10 - - - -
25/03:00pm 26.9 E 8 12 1009.2 R 9.0 Rain Mostly cloudy 4 - - - -
25/02:50pm 27.5 E 5 7 1009.1 - 8.4 - Partly cloudy 5 - - - -
25/02:30pm 27.7 E 8 11 1009.2 - 8.4 - Partly cloudy 10 - - - -
25/02:00pm 27.0 E 7 8 1009.9 - 8.4 - Partly cloudy 10 - - - -
25/01:44pm 26.7 ESE 9 13 1010.0 - 8.4 - Partly cloudy 10 - - - -
25/01:30pm 26.5 E 9 15 1010.3 - 8.4 - Partly cloudy 5 - - - -
25/01:24pm 26.8 E 7 12 1010.3 - 8.2 - Partly cloudy 6 - - - -
25/01:10pm 26.9 ESE 9 13 1010.2 - 8.0 - Partly cloudy 10 - - - -
25/01:00pm 26.5 ESE 12 20 1010.3 - 8.0 - Partly cloudy 3 - - - -
25/12:48pm 26.6 SE 8 14 1010.7 - 5.2 - Partly cloudy 4 - - - -
25/12:39pm 26.5 ESE 7 10 1010.5 - 4.0 - Partly cloudy 10 - - - -
25/12:30pm 26.0 ESE 9 11 1010.6 - 4.0 - Partly cloudy 7 - - - -
25/12:17pm 25.3 E 15 29 1010.9 - 3.8 - Partly cloudy 1 - - - -
25/12:11pm 26.1 E 13 29 1011.2 - 1.2 - Partly cloudy 5 - - - -
25/12:00pm 27.9 ESE 10 15 1010.9 F 0.2 - Cloudy 10 - - - -
25/11:30am 27.8 ESE 8 11 1011.4 - 0.2 - Partly cloudy 10 - - - -
25/11:00am 27.3 SE 8 11 1011.9 - 0.2 - Partly cloudy 10 - - - -
25/10:30am 27.0 SE 6 10 1012.4 - 0.2 - Mostly clear 10 - - - -
25/10:00am 25.7 SSW 3 4 1012.5 - 0.2 Rain Mostly clear 10 - - - -
25/09:30am 25.5 ESE 4 7 1012.4 - 0.2 - Mostly clear 10 - - - -
25/09:09am 24.7 S 4 7 1012.2 - 0.2 Rain Mostly clear 6 - - - -
25/09:00am 24.6 S 3 4 1011.9 R 23.0 Recent precip. Cloudy 10 - - - -
25/08:48am 24.3 SSE 4 5 1012.1 - 23.0 Showers Mostly clear 6 - - - -
25/08:30am 24.1 SE 8 13 1011.9 - 23.0 - Mostly clear 4 - - - -
25/08:17am 24.1 SE 13 20 1011.8 - 22.8 Rain Mostly clear 2 - - - -
25/08:00am 24.0 SE 12 17 1011.7 - 19.0 Showers Mostly clear 1 - - - -
25/07:42am 24.4 E 14 19 1011.7 - 13.2 - Partly cloudy 0.8 - - - -
25/07:30am 24.4 E 11 15 1011.4 - 8.4 - Partly cloudy 1 - - - -
25/07:24am 24.6 ESE 8 13 1011.3 - 6.0 - Partly cloudy 5 - - - -
25/07:00am 24.7 SSE 7 9 1010.6 - 5.4 - Partly cloudy 10 - - - -
25/06:51am 24.6 SSE 8 10 1010.6 - 5.4 - Partly cloudy 9 - - - -
25/06:30am 24.5 ESE 8 12 1010.3 - 5.4 - - 6 - - - -
25/06:06am 24.7 ESE 14 19 1010.1 - 4.6 - Partly cloudy 2 - - - -
25/06:00am 24.6 E 15 22 1010.1 R 4.2 Rain Cloudy 2 - - - -
25/05:50am 24.7 E 14 23 1009.8 - 3.6 - Partly cloudy 2 - - - -
25/05:37am 25.4 E 14 24 1009.8 - 1.6 - Partly cloudy 5 - - - -
25/05:34am 26.0 ESE 11 22 1009.6 - 1.4 - Partly cloudy 10 - - - -
25/05:30am 26.8 SE 8 11 1009.5 - 1.4 - Partly cloudy 10 - - - -
25/05:00am 26.9 SE 7 10 1009.1 - 1.4 - Partly cloudy 10 - - - -
25/04:30am 26.8 SE 7 10 1009.1 - 1.4 - Partly cloudy 10 - - - -
25/04:00am 26.6 SSE 6 9 1009.0 - 1.4 - - 10 - - - -
25/03:30am 26.5 SSE 6 8 1009.0 - 1.4 - - 10 - - - -
25/03:00am 26.2 SSE 7 9 1008.9 R 1.4 - - 10 - - - -
25/02:30am 25.9 SE 5 7 1009.3 - 1.4 - - 10 - - - -
25/02:00am 26.0 SE 6 8 1009.3 - 1.4 - - 10 - - - -
25/01:30am 26.0 SSE 5 6 1009.7 - 1.4 - - 10 - - - -
25/01:00am 26.2 SSE 5 6 1010.1 - 1.4 - - 10 - - - -
25/12:30am 26.3 SSE 6 7 1010.1 - 1.4 - - 10 - - - -
25/12:00am 26.5 SSE 7 8 1010.4 F 1.4 - - 10 - - - -
 
Date/Time
CST
Temp
°C
Wind Pressure Rain since
9am
mm
Weather Cloud Vis
km
Sea
Height
m
Swell
Dir  Spd
kts
Gust
kts
hPa Trend Height
m
Period
s
Dir
24/11:30pm 26.1 SSE 5 6 1011.0 - 1.4 - - 10 - - - -
24/11:00pm 26.3 SSE 6 7 1011.3 - 1.4 - - 10 - - - -
24/10:30pm 26.0 SSE 5 5 1011.8 - 1.4 - Partly cloudy 10 - - - -
24/10:00pm 26.2 SSE 4 5 1012.1 - 1.4 - Partly cloudy 10 - - - -
24/09:30pm 26.4 SSE 5 6 1012.2 - 1.4 - Partly cloudy 10 - - - -
24/09:00pm 26.5 SE 6 7 1012.2 R 1.4 - - 10 - - - -
24/08:30pm 26.6 SE 5 6 1012.0 - 1.4 - - 10 - - - -
24/08:00pm 26.9 SE 7 8 1011.5 - 1.4 - - 10 - - - -
24/07:30pm 27.6 ESE 7 9 1011.3 - 1.4 - Partly cloudy 10 - - - -
24/07:00pm 27.7 ESE 8 11 1010.9 - 1.4 - Cloudy 10 - - - -
24/06:30pm 27.5 ESE 8 11 1010.6 - 1.4 - Partly cloudy 10 - - - -
24/06:00pm 27.8 ESE 9 12 1010.1 F 1.4 - - 10 - - - -
24/05:30pm 28.2 ESE 11 14 1010.0 - 1.4 - Partly cloudy 10 - - - -
24/05:00pm 28.5 ESE 11 14 1009.7 - 1.4 - Partly cloudy 10 - - - -
24/04:30pm 28.7 ESE 13 16 1009.4 - 1.4 - Partly cloudy 10 - - - -
24/04:00pm 29.0 ESE 13 17 1009.3 - 1.4 - Partly cloudy 10 - - - -
24/03:30pm 29.1 ESE 13 18 1009.3 - 1.4 - Partly cloudy 10 - - - -
24/03:00pm 29.8 ESE 13 18 1009.4 F 1.4 - Partly cloudy 10 - - - -
24/02:30pm 30.2 ESE 15 22 1009.6 - 1.4 - Partly cloudy 10 - - - -
24/02:00pm 29.9 ESE 17 23 1009.9 - 1.4 - Partly cloudy 10 - - - -
24/01:30pm 30.4 E 15 23 1010.2 - 1.4 - Partly cloudy 10 - - - -
24/01:00pm 30.4 E 16 23 1010.5 - 1.4 - Partly cloudy 10 - - - -
24/12:30pm 30.7 E 17 22 1011.0 - 1.2 - Partly cloudy 10 - - - -
24/12:00pm 30.2 ESE 13 23 1011.3 R 1.2 Recent precip. Cloudy 10 - - - -
24/11:30am 28.6 ESE 13 20 1011.6 - 1.2 - Partly cloudy 10 - - - -
24/11:20am 28.7 E 12 19 1011.7 - 1.2 - Partly cloudy 10 - - - -
24/11:00am 27.2 E 15 23 1011.9 - 0.4 - Partly cloudy 4 - - - -
24/10:55am 28.0 E 14 23 1011.8 - 0.2 - Partly cloudy 6 - - - -
24/10:30am 29.8 ESE 9 13 1011.9 - 0.0 - Mostly clear 10 - - - -
24/10:00am 29.2 ESE 8 13 1011.9 - 0.0 Showers Partly cloudy 10 - - - -
24/09:30am 28.2 E 9 12 1011.9 - 0.0 - Mostly clear 10 - - - -
24/09:00am 27.7 E 8 13 1011.9 S 3.0 - Mostly clear 10 - - - -
24/08:30am 27.6 E 11 17 1011.8 - 3.0 - Mostly clear 10 - - - -
24/08:00am 26.5 E 12 17 1011.7 - 3.0 - Mostly clear 10 - - - -
24/07:30am 25.3 ESE 7 9 1011.4 - 3.0 - Mostly clear 10 - - - -
24/07:00am 24.8 ESE 10 13 1011.1 - 3.0 - Partly cloudy 10 - - - -
24/06:54am 24.8 ESE 11 16 1010.9 - 3.0 - Partly cloudy 10 - - - -
24/06:36am 24.7 ESE 14 20 1010.6 - 3.0 - Partly cloudy 4 - - - -
24/06:30am 24.6 ESE 15 22 1010.6 - 3.0 - Partly cloudy 2 - - - -
24/06:03am 25.4 E 13 19 1010.4 - 1.2 - Partly cloudy 2 - - - -
24/06:00am 25.5 E 12 18 1010.3 R 1.0 Rain Cloudy 2 - - - -
24/05:54am 26.0 ESE 9 18 1010.2 - 0.6 - Partly cloudy 5 - - - -
24/05:30am 26.9 SE 7 11 1009.9 - 0.2 - Partly cloudy 10 - - - -
24/05:00am 26.4 SE 6 9 1009.8 - 0.2 - - 10 - - - -
24/04:30am 26.5 SE 7 10 1009.7 - 0.2 - - 10 - - - -
24/04:00am 26.6 SE 7 10 1009.5 - 0.2 - Partly cloudy 10 - - - -
24/03:30am 26.6 SSE 7 9 1009.4 - 0.2 - - 10 - - - -
24/03:00am 26.6 SSE 7 11 1009.7 F 0.2 - - 10 - - - -
24/02:30am 26.5 SSE 6 9 1009.9 - 0.2 - Partly cloudy 10 - - - -
24/02:00am 26.4 SSE 6 8 1010.3 - 0.2 - Partly cloudy 10 - - - -
24/01:30am 26.5 SSE 6 8 1010.6 - 0.2 - - 10 - - - -
24/01:00am 26.7 SSE 7 9 1010.9 - 0.2 - - 10 - - - -
24/12:30am 27.0 SSE 7 9 1011.3 - 0.2 - - 10 - - - -
24/12:00am 27.3 SSE 7 12 1011.4 F 0.2 - - 10 - - - -
 
Date/Time
CST
Temp
°C
Wind Pressure Rain since
9am
mm
Weather Cloud Vis
km
Sea
Height
m
Swell
Dir  Spd
kts
Gust
kts
hPa Trend Height
m
Period
s
Dir
23/11:30pm 27.2 SE 7 9 1011.6 - 0.2 - - 10 - - - -
23/11:00pm 27.4 SE 8 11 1011.9 - 0.2 - - 10 - - - -
23/10:30pm 27.7 SE 9 13 1012.1 - 0.2 - Partly cloudy 10 - - - -
23/10:00pm 27.8 SE 9 14 1012.3 - 0.2 - Partly cloudy 10 - - - -
23/09:30pm 27.6 SE 9 13 1012.2 - 0.2 - - 10 - - - -
23/09:00pm 27.5 SSE 8 11 1012.2 R 0.2 - - 10 - - - -
23/08:30pm 27.3 SSE 7 10 1011.9 - 0.2 - - 10 - - - -
23/08:00pm 27.4 SSE 9 12 1011.5 - 0.2 - - 10 - - - -
23/07:30pm 27.3 SSE 7 9 1011.0 - 0.2 - - 10 - - - -
23/07:00pm 27.5 SE 9 15 1010.8 - 0.2 - Partly cloudy 10 - - - -
23/06:30pm 27.6 SE 9 13 1010.6 - 0.2 - Partly cloudy 10 - - - -
23/06:00pm 28.0 SE 12 16 1010.3 F 0.2 - Mostly clear 10 - - - -
23/05:30pm 28.5 SE 14 19 1010.0 - 0.2 - Partly cloudy 10 - - - -

Other Formats:

Comma delimited format used in spreadsheet applications
http://www.bom.gov.au/fwo/IDD60701/IDD60701.94150.axf

JavaScript Object Notation format (JSON) in row-major order
http://www.bom.gov.au/fwo/IDD60701/IDD60701.94150.json